Airfield :
LOGIN :

Register | Disclaimer

   EN    FR    IT 

 










Legend :    VFR   Marginal VFR   IFR   Intensive IFR   Very Intensive IFR
Visi :
Ceiling :
>= 8 km
>= 3000ft
5 to 8 km
1000 to 3000 ft
1500m to 5 km
500 to 1000 ft
800 to 1500m
200 to 500 ft
< 800m
< 200 ft
Symbols :   Thunderstorms  Fog  Heavy snow  Heavy precipitations  Wind > 20 kt
SIGMETs :     Misc.  Thunderstorms  Icing  Turbulence  Mountain Waves  Volcanic Ashes






- Airport Elevation : 3368 ft


LSGC - Les Eplatures

CURRENT METAR :
  • 300350Z AUTO 07006KT 040V110 9999 -DZ BKN006 03/02 Q1017

EXPIRED METARs :
  • 300320Z AUTO 05005KT 020V110 9999 BKN006 03/02 Q1017
  • 300250Z AUTO 06006KT 030V100 9999 BKN007 OVC009 03/02 Q1017
  • 300220Z AUTO 06004KT 9999 SCT005 BKN007 BKN009 03/03 Q1017
  • 300150Z AUTO 06005KT 020V090 9999 BKN004 BKN006 03/03 Q1017
  • 300120Z AUTO 04005KT 030V130 9999 BKN005 BKN007 BKN009 03/02 Q1017

Expired Forecast.



MET'MAP, your aeronautical weather chart ! - Copyright ORBIFLY December 2007 - Disclaimer

ORBIFLY MET'MAP TEAM :

Programming & Development : Alexandra Zaïnal
Original concept : Baudouin d'Aumeries
Technical & hardware support : Manuel Goepfert
Assistance : Marc-Olivier Méhu




SOURCES & CREDITS :

   NOAA